createdAt,value
2022-11-14T00:00:13.841Z,1016.28
2022-11-14T00:01:13.873Z,1016.23
2022-11-14T00:02:13.846Z,1016.28
2022-11-14T00:03:13.896Z,1016.25
2022-11-14T00:04:13.050Z,1016.25
2022-11-14T00:05:12.903Z,1016.23
2022-11-14T00:06:12.814Z,1016.24
2022-11-14T00:07:13.844Z,1016.19
2022-11-14T00:08:13.721Z,1016.22
2022-11-14T00:09:13.677Z,1016.20
2022-11-14T00:10:13.561Z,1016.22
2022-11-14T00:11:13.535Z,1016.16
2022-11-14T00:12:13.504Z,1016.15
2022-11-14T00:13:13.363Z,1016.18
2022-11-14T00:14:13.555Z,1016.14
2022-11-14T00:15:13.380Z,1016.15
2022-11-14T00:16:13.263Z,1016.17
2022-11-14T00:17:13.268Z,1016.18
2022-11-14T00:18:13.261Z,1016.16
2022-11-14T00:19:13.268Z,1016.11
2022-11-14T00:20:13.144Z,1016.14
2022-11-14T00:21:13.082Z,1016.18
2022-11-14T00:22:13.034Z,1016.15
2022-11-14T00:23:12.934Z,1016.16
2022-11-14T00:24:13.351Z,1016.21
2022-11-14T00:25:13.280Z,1016.19
2022-11-14T00:26:13.116Z,1016.18
2022-11-14T00:27:13.212Z,1016.14
2022-11-14T00:28:13.185Z,1016.21
2022-11-14T00:29:13.377Z,1016.17
2022-11-14T00:30:13.265Z,1016.17
2022-11-14T00:31:13.475Z,1016.17
2022-11-14T00:32:13.418Z,1016.13
2022-11-14T00:33:19.855Z,1016.16
2022-11-14T00:34:13.359Z,1016.13
2022-11-14T00:35:13.410Z,1016.12
2022-11-14T00:36:13.286Z,1016.14
2022-11-14T00:37:13.232Z,1016.13
2022-11-14T00:38:13.055Z,1016.09
2022-11-14T00:39:13.025Z,1016.09
2022-11-14T00:40:12.965Z,1016.07
2022-11-14T00:41:13.056Z,1016.07
2022-11-14T00:42:13.140Z,1016.06
2022-11-14T00:43:13.162Z,1016.06
2022-11-14T00:44:13.268Z,1016.05
2022-11-14T00:45:13.298Z,1016.04
2022-11-14T00:46:13.653Z,1016.01
2022-11-14T00:47:13.602Z,1016.03
2022-11-14T00:48:13.634Z,1016.03
2022-11-14T00:49:13.482Z,1016.01
2022-11-14T00:50:13.507Z,1016.01
2022-11-14T00:51:18.775Z,1015.98
2022-11-14T00:52:13.880Z,1015.96
2022-11-14T00:53:13.847Z,1015.95
2022-11-14T00:54:13.687Z,1015.92
2022-11-14T00:55:13.951Z,1015.90
2022-11-14T00:56:12.838Z,1015.83
2022-11-14T00:57:13.752Z,1015.82
2022-11-14T00:58:13.656Z,1015.85
2022-11-14T00:59:13.565Z,1015.82
2022-11-14T01:00:13.796Z,1015.82
2022-11-14T01:01:13.945Z,1015.81
2022-11-14T01:02:13.056Z,1015.83
2022-11-14T01:03:13.380Z,1015.79
2022-11-14T01:04:13.527Z,1015.76
2022-11-14T01:05:13.590Z,1015.76
2022-11-14T01:06:13.810Z,1015.75
2022-11-14T01:07:14.094Z,1015.73
2022-11-14T01:08:13.100Z,1015.73
2022-11-14T01:09:13.333Z,1015.72
2022-11-14T01:10:13.638Z,1015.72
2022-11-14T01:11:13.745Z,1015.70
2022-11-14T01:12:13.941Z,1015.69
2022-11-14T01:13:13.063Z,1015.67
2022-11-14T01:14:13.509Z,1015.66
2022-11-14T01:15:13.753Z,1015.63
2022-11-14T01:16:13.700Z,1015.62
2022-11-14T01:17:13.715Z,1015.64
2022-11-14T01:18:13.644Z,1015.58
2022-11-14T01:19:13.760Z,1015.55
2022-11-14T01:20:13.650Z,1015.51
2022-11-14T01:21:13.698Z,1015.46
2022-11-14T01:22:13.665Z,1015.48
2022-11-14T01:23:13.503Z,1015.44
2022-11-14T01:24:13.416Z,1015.44
2022-11-14T01:25:13.333Z,1015.42
2022-11-14T01:26:13.226Z,1015.41
2022-11-14T01:27:13.150Z,1015.41
2022-11-14T01:28:13.216Z,1015.38
2022-11-14T01:29:13.415Z,1015.33
2022-11-14T01:30:13.317Z,1015.35
2022-11-14T01:31:13.671Z,1015.31
2022-11-14T01:32:13.953Z,1015.27
2022-11-14T01:33:12.917Z,1015.25
2022-11-14T01:34:12.845Z,1015.23
2022-11-14T01:35:13.735Z,1015.23
2022-11-14T01:36:13.754Z,1015.19
2022-11-14T01:37:13.692Z,1015.18
2022-11-14T01:38:13.664Z,1015.18
2022-11-14T01:39:14.069Z,1015.17
2022-11-14T01:40:14.343Z,1015.17
2022-11-14T01:41:13.513Z,1015.16
2022-11-14T01:42:13.560Z,1015.13
2022-11-14T01:43:13.492Z,1015.13
2022-11-14T01:44:13.467Z,1015.10
2022-11-14T01:45:13.736Z,1015.06
2022-11-14T01:46:13.698Z,1015.08
2022-11-14T01:47:13.645Z,1015.06
2022-11-14T01:48:13.431Z,1015.06
2022-11-14T01:49:13.527Z,1015.04
2022-11-14T01:50:13.432Z,1015.06
2022-11-14T01:51:13.379Z,1015.02
2022-11-14T01:52:13.373Z,1015.02
2022-11-14T01:53:13.468Z,1014.99
2022-11-14T01:54:13.360Z,1014.98
2022-11-14T01:55:13.247Z,1014.99
2022-11-14T01:56:18.421Z,1014.96
2022-11-14T01:57:13.676Z,1014.96
2022-11-14T01:58:13.480Z,1014.97
2022-11-14T01:59:13.310Z,1014.97
2022-11-14T02:00:13.270Z,1014.89
2022-11-14T02:01:13.214Z,1014.91
2022-11-14T02:02:13.213Z,1014.91
2022-11-14T02:03:13.134Z,1014.90
2022-11-14T02:04:15.386Z,1014.86
2022-11-14T02:05:13.452Z,1014.85
2022-11-14T02:06:13.505Z,1014.86
2022-11-14T02:07:14.360Z,1014.82
2022-11-14T02:08:13.313Z,1014.82
2022-11-14T02:09:13.548Z,1014.85
2022-11-14T02:10:13.444Z,1014.83
2022-11-14T02:11:13.366Z,1014.82
2022-11-14T02:12:13.237Z,1014.81
2022-11-14T02:13:13.520Z,1014.78
2022-11-14T02:14:13.533Z,1014.76
2022-11-14T02:15:13.465Z,1014.76
2022-11-14T02:16:13.629Z,1014.74
2022-11-14T02:17:29.166Z,1014.72
2022-11-14T02:18:13.513Z,1014.73
2022-11-14T02:19:13.608Z,1014.76
2022-11-14T02:20:13.573Z,1014.76
2022-11-14T02:21:13.496Z,1014.74
2022-11-14T02:22:13.679Z,1014.75
2022-11-14T02:23:13.864Z,1014.78
2022-11-14T02:24:14.011Z,1014.76
2022-11-14T02:25:13.061Z,1014.74
2022-11-14T02:26:13.169Z,1014.72
2022-11-14T02:27:13.094Z,1014.72
2022-11-14T02:28:14.613Z,1014.67
2022-11-14T02:29:13.824Z,1014.71
2022-11-14T02:30:13.908Z,1014.67
2022-11-14T02:31:13.081Z,1014.68
2022-11-14T02:32:13.387Z,1014.68
2022-11-14T02:33:13.344Z,1014.63
2022-11-14T02:34:13.629Z,1014.64
2022-11-14T02:35:13.610Z,1014.59
2022-11-14T02:36:13.680Z,1014.64
2022-11-14T02:37:13.599Z,1014.59
2022-11-14T02:38:13.692Z,1014.56
2022-11-14T02:39:13.761Z,1014.52
2022-11-14T02:40:13.724Z,1014.57
2022-11-14T02:41:13.750Z,1014.49
2022-11-14T02:42:13.996Z,1014.50
2022-11-14T02:43:13.093Z,1014.47
2022-11-14T02:44:13.420Z,1014.48
2022-11-14T02:45:13.552Z,1014.38
2022-11-14T02:46:13.996Z,1014.41
2022-11-14T02:47:13.383Z,1014.37
2022-11-14T02:48:13.405Z,1014.34
2022-11-14T02:49:14.188Z,1014.35
2022-11-14T02:50:13.263Z,1014.35
2022-11-14T02:51:13.216Z,1014.34
2022-11-14T02:52:13.407Z,1014.33
2022-11-14T02:53:13.335Z,1014.31
2022-11-14T02:54:13.503Z,1014.30
2022-11-14T02:55:13.592Z,1014.29
2022-11-14T02:56:13.980Z,1014.34
2022-11-14T02:57:12.880Z,1014.37
2022-11-14T02:58:13.476Z,1014.39
2022-11-14T02:59:14.087Z,1014.39
2022-11-14T03:00:15.194Z,1014.36
2022-11-14T03:01:20.664Z,1014.42
2022-11-14T03:02:13.736Z,1014.39
2022-11-14T03:03:13.721Z,1014.35
2022-11-14T03:04:13.594Z,1014.35
2022-11-14T03:05:13.683Z,1014.33
2022-11-14T03:06:13.683Z,1014.25
2022-11-14T03:07:13.630Z,1014.27
2022-11-14T03:08:13.697Z,1014.31
2022-11-14T03:09:13.747Z,1014.31
2022-11-14T03:10:14.163Z,1014.31
2022-11-14T03:11:13.511Z,1014.31
2022-11-14T03:12:13.697Z,1014.32
2022-11-14T03:13:13.682Z,1014.30
2022-11-14T03:14:13.682Z,1014.31
2022-11-14T03:15:13.545Z,1014.32
2022-11-14T03:16:13.845Z,1014.33
2022-11-14T03:17:13.740Z,1014.34
2022-11-14T03:18:13.792Z,1014.32
2022-11-14T03:19:14.055Z,1014.32
2022-11-14T03:20:13.153Z,1014.35
2022-11-14T03:21:13.435Z,1014.33
2022-11-14T03:22:13.526Z,1014.32
2022-11-14T03:23:13.429Z,1014.31
2022-11-14T03:24:13.368Z,1014.30
2022-11-14T03:25:13.332Z,1014.30
2022-11-14T03:26:13.252Z,1014.30
2022-11-14T03:27:13.876Z,1014.31
2022-11-14T03:28:13.824Z,1014.29
2022-11-14T03:29:14.501Z,1014.30
2022-11-14T03:30:13.587Z,1014.28
2022-11-14T03:31:13.591Z,1014.25
2022-11-14T03:32:14.185Z,1014.26
2022-11-14T03:33:13.062Z,1014.21
2022-11-14T03:34:13.086Z,1014.17
2022-11-14T03:35:13.209Z,1014.17
2022-11-14T03:36:13.537Z,1014.22
2022-11-14T03:37:13.468Z,1014.25
2022-11-14T03:38:13.434Z,1014.24
2022-11-14T03:39:13.427Z,1014.21
2022-11-14T03:40:13.360Z,1014.23
2022-11-14T03:41:13.661Z,1014.20
2022-11-14T03:42:13.667Z,1014.23
2022-11-14T03:43:13.848Z,1014.24
2022-11-14T03:44:14.069Z,1014.25
2022-11-14T03:45:13.135Z,1014.26
2022-11-14T03:46:13.277Z,1014.27
2022-11-14T03:47:13.460Z,1014.24
2022-11-14T03:48:13.560Z,1014.26
2022-11-14T03:49:13.808Z,1014.27
2022-11-14T03:50:13.810Z,1014.26
2022-11-14T03:51:13.767Z,1014.30
2022-11-14T03:52:13.829Z,1014.31
2022-11-14T03:53:13.849Z,1014.29
2022-11-14T03:54:13.867Z,1014.29
2022-11-14T03:55:13.801Z,1014.27
2022-11-14T03:56:13.771Z,1014.23
2022-11-14T03:57:13.761Z,1014.21
2022-11-14T03:58:13.890Z,1014.20
2022-11-14T03:59:13.809Z,1014.22
2022-11-14T04:00:13.753Z,1014.19
2022-11-14T04:01:13.686Z,1014.19
2022-11-14T04:02:13.660Z,1014.16
2022-11-14T04:03:13.579Z,1014.17
2022-11-14T04:04:13.391Z,1014.14
2022-11-14T04:05:13.647Z,1014.11
2022-11-14T04:06:13.719Z,1014.11
2022-11-14T04:07:14.436Z,1014.13
2022-11-14T04:08:13.955Z,1014.07
2022-11-14T04:09:12.874Z,1014.06
2022-11-14T04:10:13.823Z,1014.07
2022-11-14T04:11:13.811Z,1014.05
2022-11-14T04:12:15.900Z,1014.00
2022-11-14T04:13:14.762Z,1013.96
2022-11-14T04:14:13.729Z,1013.93
2022-11-14T04:15:13.695Z,1013.93
2022-11-14T04:16:13.749Z,1013.90
2022-11-14T04:17:13.902Z,1013.88
2022-11-14T04:18:12.897Z,1013.93
2022-11-14T04:19:12.791Z,1013.91
2022-11-14T04:20:13.887Z,1013.88
2022-11-14T04:21:13.027Z,1013.86
2022-11-14T04:22:13.284Z,1013.82
2022-11-14T04:23:13.374Z,1013.84
2022-11-14T04:24:13.361Z,1013.83
2022-11-14T04:25:13.283Z,1013.85
2022-11-14T04:26:13.401Z,1013.85
2022-11-14T04:27:13.546Z,1013.87
2022-11-14T04:28:13.950Z,1013.91
2022-11-14T04:29:12.952Z,1013.91
2022-11-14T04:30:12.841Z,1013.92
2022-11-14T04:31:13.667Z,1013.92
2022-11-14T04:32:13.619Z,1013.97
2022-11-14T04:33:13.526Z,1013.97
2022-11-14T04:34:13.479Z,1013.95
2022-11-14T04:35:13.850Z,1013.94
2022-11-14T04:36:13.781Z,1013.95
2022-11-14T04:37:13.648Z,1013.90
2022-11-14T04:38:13.563Z,1013.93
2022-11-14T04:39:13.516Z,1013.92
2022-11-14T04:40:13.420Z,1013.88
2022-11-14T04:41:13.638Z,1013.91
2022-11-14T04:42:13.952Z,1013.95
2022-11-14T04:43:13.068Z,1013.95
2022-11-14T04:44:13.283Z,1013.98
2022-11-14T04:45:13.310Z,1013.94
2022-11-14T04:46:13.619Z,1013.94
2022-11-14T04:47:13.616Z,1013.92
2022-11-14T04:48:13.676Z,1013.91
2022-11-14T04:49:13.692Z,1013.96
2022-11-14T04:50:13.819Z,1013.92
2022-11-14T04:51:13.785Z,1013.90
2022-11-14T04:52:13.752Z,1013.93
2022-11-14T04:53:13.673Z,1013.90
2022-11-14T04:54:13.665Z,1013.90
2022-11-14T04:55:13.590Z,1013.88
2022-11-14T04:56:13.501Z,1013.92
2022-11-14T04:57:13.900Z,1013.86
2022-11-14T04:58:12.812Z,1013.82
2022-11-14T04:59:16.981Z,1013.80
2022-11-14T05:00:13.690Z,1013.80
2022-11-14T05:01:14.293Z,1013.82
2022-11-14T05:02:13.256Z,1013.79
2022-11-14T05:03:13.197Z,1013.78
2022-11-14T05:04:13.056Z,1013.77
2022-11-14T05:05:13.261Z,1013.77
2022-11-14T05:06:13.592Z,1013.76
2022-11-14T05:07:13.930Z,1013.78
2022-11-14T05:08:13.276Z,1013.74
2022-11-14T05:09:13.328Z,1013.76
2022-11-14T05:10:13.281Z,1013.72
2022-11-14T05:11:13.225Z,1013.74
2022-11-14T05:12:13.261Z,1013.72
2022-11-14T05:13:13.291Z,1013.69
2022-11-14T05:14:13.362Z,1013.65
2022-11-14T05:15:18.356Z,1013.64
2022-11-14T05:16:13.275Z,1013.66
2022-11-14T05:17:13.512Z,1013.67
2022-11-14T05:18:13.340Z,1013.67
2022-11-14T05:19:13.228Z,1013.63
2022-11-14T05:20:13.106Z,1013.60
2022-11-14T05:21:13.030Z,1013.60
2022-11-14T05:22:12.948Z,1013.64
2022-11-14T05:23:12.844Z,1013.63
2022-11-14T05:24:13.188Z,1013.66
2022-11-14T05:25:13.238Z,1013.64
2022-11-14T05:26:13.824Z,1013.60
2022-11-14T05:27:18.802Z,1013.62
2022-11-14T05:28:13.715Z,1013.63
2022-11-14T05:29:13.711Z,1013.65
2022-11-14T05:30:13.957Z,1013.58
2022-11-14T05:31:13.702Z,1013.60
2022-11-14T05:32:16.415Z,1013.63
2022-11-14T05:33:13.898Z,1013.60
2022-11-14T05:34:12.764Z,1013.62
2022-11-14T05:35:13.941Z,1013.56
2022-11-14T05:36:13.082Z,1013.54
2022-11-14T05:37:13.360Z,1013.48
2022-11-14T05:38:13.330Z,1013.48
2022-11-14T05:39:13.430Z,1013.45
2022-11-14T05:40:13.502Z,1013.45
2022-11-14T05:41:14.088Z,1013.45
2022-11-14T05:42:13.472Z,1013.43
2022-11-14T05:43:13.514Z,1013.46
2022-11-14T05:44:13.420Z,1013.42
2022-11-14T05:45:13.286Z,1013.43
2022-11-14T05:46:13.308Z,1013.40
2022-11-14T05:47:13.220Z,1013.44
2022-11-14T05:48:13.188Z,1013.43
2022-11-14T05:49:15.857Z,1013.37
2022-11-14T05:50:13.206Z,1013.33
2022-11-14T05:51:13.277Z,1013.30
2022-11-14T05:52:13.495Z,1013.31
2022-11-14T05:53:13.486Z,1013.31
2022-11-14T05:54:23.116Z,1013.35
2022-11-14T05:55:13.219Z,1013.36
2022-11-14T05:56:13.401Z,1013.32
2022-11-14T05:57:13.504Z,1013.39
2022-11-14T05:58:13.587Z,1013.38
2022-11-14T05:59:13.390Z,1013.42
2022-11-14T06:00:13.628Z,1013.40
2022-11-14T06:01:13.909Z,1013.43
2022-11-14T06:02:13.300Z,1013.47
2022-11-14T06:03:13.598Z,1013.48
2022-11-14T06:04:13.696Z,1013.47
2022-11-14T06:05:13.875Z,1013.49
2022-11-14T06:06:13.949Z,1013.48
2022-11-14T06:07:17.468Z,1013.46
2022-11-14T06:08:13.066Z,1013.44
2022-11-14T06:10:41.789Z,1013.48
2022-11-14T06:11:13.836Z,1013.52
2022-11-14T06:12:13.642Z,1013.46
2022-11-14T06:13:13.889Z,1013.47
2022-11-14T06:14:13.825Z,1013.44
2022-11-14T06:15:13.796Z,1013.40
2022-11-14T06:16:13.743Z,1013.41
2022-11-14T06:17:13.949Z,1013.43
2022-11-14T06:18:14.526Z,1013.40
2022-11-14T06:19:14.398Z,1013.40
2022-11-14T06:20:13.660Z,1013.39
2022-11-14T06:21:13.847Z,1013.40
2022-11-14T06:22:14.243Z,1013.40
2022-11-14T06:23:13.169Z,1013.42
2022-11-14T06:24:13.127Z,1013.37
2022-11-14T06:25:14.494Z,1013.42
2022-11-14T06:26:13.446Z,1013.39
2022-11-14T06:27:13.898Z,1013.41
2022-11-14T06:28:12.818Z,1013.39
2022-11-14T06:29:13.728Z,1013.36
2022-11-14T06:30:13.636Z,1013.38
2022-11-14T06:31:13.631Z,1013.39
2022-11-14T06:32:14.074Z,1013.41
2022-11-14T06:33:12.995Z,1013.41
2022-11-14T06:34:13.023Z,1013.44
2022-11-14T06:35:12.980Z,1013.50
2022-11-14T06:36:12.871Z,1013.49
2022-11-14T06:37:33.723Z,1013.47
2022-11-14T06:38:13.221Z,1013.47
2022-11-14T06:39:13.243Z,1013.45
2022-11-14T06:40:13.541Z,1013.45
2022-11-14T06:41:13.668Z,1013.48
2022-11-14T06:42:13.684Z,1013.46
2022-11-14T06:43:13.725Z,1013.52
2022-11-14T06:44:13.785Z,1013.50
2022-11-14T06:45:13.897Z,1013.45
2022-11-14T06:46:12.700Z,1013.46
2022-11-14T06:47:13.852Z,1013.42
2022-11-14T06:48:13.808Z,1013.45
2022-11-14T06:49:13.972Z,1013.43
2022-11-14T06:50:13.205Z,1013.43
2022-11-14T06:51:13.374Z,1013.45
2022-11-14T06:52:13.649Z,1013.44
2022-11-14T06:53:14.006Z,1013.46
2022-11-14T06:54:13.048Z,1013.48
2022-11-14T06:55:13.324Z,1013.47
2022-11-14T06:56:13.476Z,1013.50
2022-11-14T06:57:13.336Z,1013.47
2022-11-14T06:58:13.499Z,1013.50
2022-11-14T06:59:13.431Z,1013.51
2022-11-14T07:00:13.279Z,1013.50
2022-11-14T07:01:13.300Z,1013.51
2022-11-14T07:02:17.761Z,1013.53
2022-11-14T07:03:13.786Z,1013.56
2022-11-14T07:04:14.272Z,1013.51
2022-11-14T07:05:13.624Z,1013.51
2022-11-14T07:06:13.639Z,1013.50
2022-11-14T07:07:13.667Z,1013.51
2022-11-14T07:08:17.254Z,1013.53
2022-11-14T07:09:13.830Z,1013.54
2022-11-14T07:10:13.875Z,1013.58
2022-11-14T07:11:13.128Z,1013.55
2022-11-14T07:12:13.235Z,1013.51
2022-11-14T07:13:13.310Z,1013.50
2022-11-14T07:14:13.284Z,1013.51
2022-11-14T07:15:13.694Z,1013.54
2022-11-14T07:16:13.947Z,1013.52
2022-11-14T07:17:14.232Z,1013.51
2022-11-14T07:18:13.379Z,1013.48
2022-11-14T07:19:13.618Z,1013.45
2022-11-14T07:20:13.654Z,1013.41
2022-11-14T07:21:13.576Z,1013.40
2022-11-14T07:22:13.671Z,1013.39
2022-11-14T07:23:14.757Z,1013.39
2022-11-14T07:24:13.944Z,1013.39
2022-11-14T07:25:12.843Z,1013.38
2022-11-14T07:26:13.868Z,1013.35
2022-11-14T07:27:13.773Z,1013.38
2022-11-14T07:28:14.091Z,1013.33
2022-11-14T07:29:13.016Z,1013.33
2022-11-14T07:30:13.023Z,1013.32
2022-11-14T07:31:13.190Z,1013.32
2022-11-14T07:32:13.153Z,1013.32
2022-11-14T07:33:13.128Z,1013.31
2022-11-14T07:34:13.543Z,1013.28
2022-11-14T07:35:13.574Z,1013.32
2022-11-14T07:36:13.684Z,1013.31
2022-11-14T07:37:13.744Z,1013.30
2022-11-14T07:38:13.785Z,1013.29
2022-11-14T07:39:13.856Z,1013.28
2022-11-14T07:40:13.792Z,1013.31
2022-11-14T07:41:13.922Z,1013.34
2022-11-14T07:42:12.890Z,1013.32
2022-11-14T07:43:14.146Z,1013.35
2022-11-14T07:44:13.282Z,1013.36
2022-11-14T07:45:13.142Z,1013.36
2022-11-14T07:46:13.019Z,1013.35
2022-11-14T07:47:12.913Z,1013.35
2022-11-14T07:48:12.915Z,1013.36
2022-11-14T07:49:13.175Z,1013.35
2022-11-14T07:50:16.313Z,1013.34
2022-11-14T07:51:13.492Z,1013.32
2022-11-14T07:52:13.518Z,1013.35
2022-11-14T07:53:13.774Z,1013.35
2022-11-14T07:54:14.127Z,1013.36
2022-11-14T07:55:13.062Z,1013.41
2022-11-14T07:56:12.978Z,1013.40
2022-11-14T07:57:12.937Z,1013.34
2022-11-14T07:58:12.857Z,1013.35
2022-11-14T07:59:13.922Z,1013.36
2022-11-14T08:00:12.774Z,1013.35
2022-11-14T08:01:13.944Z,1013.33
2022-11-14T08:02:12.924Z,1013.33
2022-11-14T08:03:12.927Z,1013.30
2022-11-14T08:04:13.077Z,1013.29
2022-11-14T08:05:12.960Z,1013.31
2022-11-14T08:06:12.896Z,1013.31
2022-11-14T08:07:13.753Z,1013.28
2022-11-14T08:08:13.671Z,1013.34
2022-11-14T08:09:14.076Z,1013.33
2022-11-14T08:10:13.107Z,1013.32
2022-11-14T08:11:15.077Z,1013.25
2022-11-14T08:12:13.137Z,1013.27
2022-11-14T08:13:31.762Z,1013.28
2022-11-14T08:14:13.629Z,1013.21
2022-11-14T08:15:13.808Z,1013.22
2022-11-14T08:16:14.243Z,1013.26
2022-11-14T08:17:13.408Z,1013.18
2022-11-14T08:18:13.248Z,1013.24
2022-11-14T08:19:13.058Z,1013.28
2022-11-14T08:20:13.232Z,1013.28
2022-11-14T08:21:13.300Z,1013.31
2022-11-14T08:22:13.122Z,1013.28
2022-11-14T08:23:13.484Z,1013.25
2022-11-14T08:24:13.398Z,1013.24
2022-11-14T08:25:13.463Z,1013.19
2022-11-14T08:26:13.409Z,1013.13
2022-11-14T08:27:13.343Z,1013.15
2022-11-14T08:28:13.197Z,1013.12
2022-11-14T08:29:13.422Z,1013.10
2022-11-14T08:30:13.523Z,1013.12
2022-11-14T08:31:13.662Z,1013.10
2022-11-14T08:32:13.894Z,1013.08
2022-11-14T08:33:13.044Z,1013.06
2022-11-14T08:34:13.218Z,1013.08
2022-11-14T08:35:13.058Z,1013.10
2022-11-14T08:36:13.152Z,1013.08
2022-11-14T08:37:13.153Z,1013.10
2022-11-14T08:38:14.918Z,1013.10
2022-11-14T08:39:13.333Z,1013.14
2022-11-14T08:40:13.170Z,1013.13
2022-11-14T08:41:13.236Z,1013.15
2022-11-14T08:42:13.463Z,1013.13
2022-11-14T08:43:13.607Z,1013.12
2022-11-14T08:44:13.864Z,1013.13
2022-11-14T08:45:13.746Z,1013.15
2022-11-14T08:46:13.671Z,1013.18
2022-11-14T08:47:13.517Z,1013.20
2022-11-14T08:48:13.610Z,1013.19
2022-11-14T08:49:13.556Z,1013.21
2022-11-14T08:50:13.483Z,1013.22
2022-11-14T08:51:13.431Z,1013.21
2022-11-14T08:52:16.718Z,1013.17
2022-11-14T08:53:13.231Z,1013.19
2022-11-14T08:54:13.373Z,1013.15
2022-11-14T08:55:13.428Z,1013.19
2022-11-14T08:56:13.691Z,1013.17
2022-11-14T08:57:13.596Z,1013.21
2022-11-14T08:58:13.993Z,1013.18
2022-11-14T08:59:12.907Z,1013.18
2022-11-14T09:00:12.808Z,1013.20
2022-11-14T09:01:14.115Z,1013.20
2022-11-14T09:02:13.352Z,1013.27
2022-11-14T09:03:13.348Z,1013.28
2022-11-14T09:04:13.705Z,1013.22
2022-11-14T09:05:13.690Z,1013.25
2022-11-14T09:06:14.620Z,1013.32
2022-11-14T09:07:13.632Z,1013.34
2022-11-14T09:08:14.144Z,1013.38
2022-11-14T09:09:13.022Z,1013.44
2022-11-14T09:10:12.985Z,1013.44
2022-11-14T09:11:15.483Z,1013.46
2022-11-14T09:12:13.223Z,1013.40
2022-11-14T09:13:13.092Z,1013.38
2022-11-14T09:14:13.059Z,1013.40
2022-11-14T09:15:13.265Z,1013.37
2022-11-14T09:16:13.136Z,1013.38
2022-11-14T09:17:13.115Z,1013.36
2022-11-14T09:18:13.003Z,1013.38
2022-11-14T09:19:14.275Z,1013.37
2022-11-14T09:20:13.195Z,1013.32
2022-11-14T09:21:13.783Z,1013.33
2022-11-14T09:22:13.751Z,1013.31
2022-11-14T09:23:13.690Z,1013.33
2022-11-14T09:24:13.701Z,1013.33
2022-11-14T09:25:13.683Z,1013.33
2022-11-14T09:26:14.163Z,1013.32
2022-11-14T09:27:13.620Z,1013.33
2022-11-14T09:28:13.401Z,1013.35
2022-11-14T09:29:13.434Z,1013.33
2022-11-14T09:30:13.429Z,1013.34
2022-11-14T09:31:13.419Z,1013.32
2022-11-14T09:32:13.217Z,1013.34
2022-11-14T09:33:13.309Z,1013.28
2022-11-14T09:34:13.442Z,1013.30
2022-11-14T09:35:13.320Z,1013.27
2022-11-14T09:36:13.308Z,1013.33
2022-11-14T09:37:13.681Z,1013.32
2022-11-14T09:38:13.972Z,1013.34
2022-11-14T09:39:13.020Z,1013.36
2022-11-14T09:40:12.923Z,1013.41
2022-11-14T09:41:12.812Z,1013.40
2022-11-14T09:42:17.152Z,1013.43
2022-11-14T09:43:13.413Z,1013.46
2022-11-14T09:44:19.155Z,1013.41
2022-11-14T09:45:13.396Z,1013.40
2022-11-14T09:46:13.357Z,1013.38
2022-11-14T09:47:17.996Z,1013.35
2022-11-14T09:48:13.651Z,1013.35
2022-11-14T09:49:13.605Z,1013.38
2022-11-14T09:50:13.480Z,1013.39
2022-11-14T09:51:13.489Z,1013.36
2022-11-14T09:52:13.571Z,1013.36
2022-11-14T09:53:13.448Z,1013.36
2022-11-14T09:54:13.393Z,1013.31
2022-11-14T09:55:13.322Z,1013.34
2022-11-14T09:56:13.167Z,1013.33
2022-11-14T09:57:13.049Z,1013.31
2022-11-14T09:58:12.991Z,1013.27
2022-11-14T09:59:12.921Z,1013.28
2022-11-14T10:00:12.752Z,1013.29
2022-11-14T10:01:13.583Z,1013.28
2022-11-14T10:02:13.547Z,1013.22
2022-11-14T10:03:13.450Z,1013.24
2022-11-14T10:04:13.269Z,1013.23
2022-11-14T10:05:13.357Z,1013.19
2022-11-14T10:06:13.174Z,1013.25
2022-11-14T10:07:13.078Z,1013.20
2022-11-14T10:08:13.227Z,1013.23
2022-11-14T10:09:13.351Z,1013.20
2022-11-14T10:10:13.374Z,1013.21
2022-11-14T10:11:13.310Z,1013.19
2022-11-14T10:12:13.483Z,1013.21
2022-11-14T10:13:13.489Z,1013.17
2022-11-14T10:14:13.742Z,1013.14
2022-11-14T10:15:13.679Z,1013.21
2022-11-14T10:16:13.494Z,1013.15
2022-11-14T10:17:13.278Z,1013.19
2022-11-14T10:18:14.577Z,1013.19
2022-11-14T10:19:13.428Z,1013.17
2022-11-14T10:20:13.652Z,1013.12
2022-11-14T10:21:13.649Z,1013.08
2022-11-14T10:22:13.534Z,1013.07
2022-11-14T10:23:13.795Z,1012.97
2022-11-14T10:24:13.879Z,1013.05
2022-11-14T10:25:13.849Z,1013.05
2022-11-14T10:26:13.723Z,1013.07
2022-11-14T10:27:13.633Z,1013.08
2022-11-14T10:28:13.739Z,1013.10
2022-11-14T10:29:13.626Z,1013.15
2022-11-14T10:30:13.604Z,1013.17
2022-11-14T10:31:13.913Z,1013.14
2022-11-14T10:32:12.791Z,1013.12
2022-11-14T10:33:13.968Z,1013.11
2022-11-14T10:34:13.809Z,1013.06
2022-11-14T10:35:13.786Z,1013.02
2022-11-14T10:36:13.605Z,1012.98
2022-11-14T10:37:13.419Z,1013.01
2022-11-14T10:38:14.032Z,1013.03
2022-11-14T10:39:12.953Z,1013.07
2022-11-14T10:40:12.927Z,1013.01
2022-11-14T10:41:28.490Z,1013.03
2022-11-14T10:42:13.227Z,1013.10
2022-11-14T10:43:13.103Z,1013.09
2022-11-14T10:44:13.138Z,1013.17
2022-11-14T10:45:13.141Z,1013.15
2022-11-14T10:46:13.205Z,1013.15
2022-11-14T10:47:13.059Z,1013.12
2022-11-14T10:48:12.964Z,1013.13
2022-11-14T10:49:12.835Z,1013.12
2022-11-14T10:50:34.424Z,1013.09
2022-11-14T10:51:13.495Z,1013.15
2022-11-14T10:52:13.459Z,1013.16
2022-11-14T10:53:19.678Z,1013.19
2022-11-14T10:54:29.123Z,1013.16
2022-11-14T10:55:13.362Z,1013.22
2022-11-14T10:56:13.398Z,1013.23
2022-11-14T10:57:13.724Z,1013.27
2022-11-14T10:58:13.679Z,1013.18
2022-11-14T10:59:13.795Z,1013.16
2022-11-14T11:00:13.702Z,1013.08
2022-11-14T11:01:13.833Z,1013.07
2022-11-14T11:02:14.080Z,1012.99
2022-11-14T11:03:13.062Z,1012.94
2022-11-14T11:04:13.028Z,1012.87
2022-11-14T11:05:13.292Z,1012.79
2022-11-14T11:06:13.253Z,1012.76
2022-11-14T11:07:13.213Z,1012.78
2022-11-14T11:08:41.340Z,1012.77
2022-11-14T11:09:13.457Z,1012.76
2022-11-14T11:10:13.569Z,1012.75
2022-11-14T11:11:13.720Z,1012.71
2022-11-14T11:12:13.780Z,1012.73
2022-11-14T11:13:13.765Z,1012.69
2022-11-14T11:14:13.988Z,1012.73
2022-11-14T11:15:13.999Z,1012.76
2022-11-14T11:16:12.865Z,1012.84
2022-11-14T11:17:13.720Z,1012.81
2022-11-14T11:18:13.785Z,1012.92
2022-11-14T11:19:14.022Z,1012.82
2022-11-14T11:20:12.902Z,1012.67
2022-11-14T11:21:12.855Z,1012.58
2022-11-14T11:22:13.154Z,1012.57
2022-11-14T11:23:13.090Z,1012.65
2022-11-14T11:24:13.309Z,1012.67
2022-11-14T11:25:13.241Z,1012.55
2022-11-14T11:26:13.474Z,1012.50
2022-11-14T11:27:13.427Z,1012.44
2022-11-14T11:28:13.334Z,1012.42
2022-11-14T11:29:13.424Z,1012.42
2022-11-14T11:30:13.258Z,1012.45
2022-11-14T11:31:13.326Z,1012.51
2022-11-14T11:32:13.357Z,1012.57
2022-11-14T11:33:13.538Z,1012.51
2022-11-14T11:34:13.525Z,1012.44
2022-11-14T11:35:13.393Z,1012.46
2022-11-14T11:36:13.245Z,1012.42
2022-11-14T11:37:13.219Z,1012.37
2022-11-14T11:38:15.895Z,1012.31
2022-11-14T11:39:13.109Z,1012.25
2022-11-14T11:40:13.139Z,1012.16
2022-11-14T11:41:25.999Z,1012.15
2022-11-14T11:42:13.763Z,1012.10
2022-11-14T11:43:39.284Z,1012.19
2022-11-14T11:44:13.333Z,1012.20
2022-11-14T11:45:13.197Z,1012.24
2022-11-14T11:46:13.308Z,1012.32
2022-11-14T11:47:13.427Z,1012.29
2022-11-14T11:48:13.593Z,1012.27
2022-11-14T11:49:14.019Z,1012.19
2022-11-14T11:50:12.800Z,1012.18
2022-11-14T11:51:15.230Z,1012.25
2022-11-14T11:52:13.183Z,1012.19
2022-11-14T11:53:13.362Z,1012.04
2022-11-14T11:54:13.484Z,1012.12
2022-11-14T11:55:13.783Z,1012.10
2022-11-14T11:56:13.754Z,1012.10
2022-11-14T11:57:18.533Z,1012.16
2022-11-14T11:58:13.519Z,1012.18
2022-11-14T11:59:13.509Z,1012.11
2022-11-14T12:00:13.419Z,1012.12
2022-11-14T12:01:13.602Z,1012.04
2022-11-14T12:02:13.945Z,1012.02
2022-11-14T12:03:13.178Z,1012.02
2022-11-14T12:04:13.509Z,1012.03
2022-11-14T12:05:13.385Z,1012.01
2022-11-14T12:06:13.269Z,1011.95